Time;durP1;ratioP1;P1;durP2;ratioP2;P2;SDS_P1;SDS_P2;PMS_P1;PMS_P2;Temp;Humidity;BMP_temperature;BMP_pressure;BME280_temperature;BME280_humidity;BME280_pressure;Samples;Min_cycle;Max_cycle;Signal;HPM_P1;HPM_P2
2021/07/28 00:00:54;;;;;;;25.83;12.68;;;666.50;2176.00;;;;;;5092817;28;20028;-81
2021/07/28 00:03:20;;;;;;;30.67;12.68;;;666.50;2201.60;;;;;;5092673;28;20039;-82
2021/07/28 00:05:45;;;;;;;26.33;12.98;;;666.30;2201.60;;;;;;5093846;28;20035;-84
2021/07/28 00:08:11;;;;;;;23.42;12.82;;;666.20;2227.20;;;;;;5093619;28;20126;-82
2021/07/28 00:10:37;;;;;;;21.20;12.80;;;666.00;2252.80;;;;;;5095605;28;20028;-82
2021/07/28 00:13:02;;;;;;;29.60;13.05;;;666.00;2252.80;;;;;;5093589;28;20020;-83
2021/07/28 00:15:28;;;;;;;24.52;13.32;;;665.90;2252.80;;;;;;5093027;28;20072;-82
2021/07/28 00:17:58;;;;;;;28.02;13.13;;;665.90;2252.80;;;;;;5093493;28;20437;-83
2021/07/28 00:23:12;;;;;;;21.25;13.60;;;665.90;2227.20;;;;;;5093771;28;20480;-83
2021/07/28 00:23:16;;;;;;;26.88;13.40;;;665.80;2252.80;;;;;;5093304;28;20069;-85
2021/07/28 00:25:47;;;;;;;23.90;13.43;;;665.70;2252.80;;;;;;5090015;28;20457;-80
2021/07/28 00:28:13;;;;;;;25.92;12.63;;;665.60;2278.40;;;;;;5091883;28;20039;-79
2021/07/28 00:30:43;;;;;;;23.13;11.43;;;640.90;2252.80;;;;;;5092288;28;20506;-83
2021/07/28 00:33:09;;;;;;;26.02;12.80;;;640.70;2278.40;;;;;;5092417;28;20020;-80
2021/07/28 00:35:34;;;;;;;26.48;12.23;;;640.90;2252.80;;;;;;5092864;28;20028;-80
2021/07/28 00:38:04;;;;;;;26.17;12.43;;;640.90;2278.40;;;;;;5094207;28;20075;-82
2021/07/28 00:40:30;;;;;;;27.55;12.52;;;640.90;2278.40;;;;;;5093288;28;20016;-81
2021/07/28 00:43:14;;;;;;;24.70;12.90;;;640.90;2252.80;;;;;;5092992;28;20020;-81
2021/07/28 00:45:41;;;;;;;24.58;12.23;;;640.90;2278.40;;;;;;5092495;28;20553;-79
2021/07/28 00:48:08;;;;;;;24.02;14.10;;;640.70;2278.40;;;;;;5092876;28;20028;-80
2021/07/28 00:50:36;;;;;;;27.20;13.10;;;640.90;2278.40;;;;;;5092861;28;20034;-82
2021/07/28 00:53:02;;;;;;;21.27;11.88;;;665.60;2278.40;;;;;;5093795;28;20132;-80
2021/07/28 00:55:30;;;;;;;30.70;12.93;;;640.90;2278.40;;;;;;5093900;28;20016;-79
2021/07/28 00:57:58;;;;;;;25.50;14.02;;;640.90;2278.40;;;;;;5092197;28;20130;-80
2021/07/28 01:00:23;;;;;;;30.98;12.30;;;640.70;2304.00;;;;;;5090296;28;20085;-82
2021/07/28 01:02:49;;;;;;;30.55;12.40;;;640.70;2304.00;;;;;;5092627;28;20036;-81
2021/07/28 01:05:15;;;;;;;25.17;12.98;;;640.60;2304.00;;;;;;5092216;28;20089;-84
2021/07/28 01:07:41;;;;;;;23.77;12.95;;;640.60;2304.00;;;;;;5092145;28;20065;-80
2021/07/28 01:10:06;;;;;;;27.10;13.38;;;640.50;2329.60;;;;;;5092835;28;20431;-80
2021/07/28 01:12:34;;;;;;;20.77;11.88;;;640.50;2329.60;;;;;;5093188;28;20031;-83
2021/07/28 01:15:00;;;;;;;27.02;12.35;;;640.50;2304.00;;;;;;5093809;28;20020;-85
2021/07/28 01:17:26;;;;;;;23.73;12.63;;;640.50;2304.00;;;;;;5092526;28;20020;-81
2021/07/28 01:20:00;;;;;;;25.48;14.18;;;640.40;2304.00;;;;;;5092661;28;20028;-81
2021/07/28 01:22:26;;;;;;;21.60;12.48;;;640.50;2329.60;;;;;;5089617;28;20092;-84
2021/07/28 01:24:52;;;;;;;22.02;12.85;;;640.40;2329.60;;;;;;5091111;28;20503;-84
2021/07/28 01:27:18;;;;;;;24.92;12.77;;;640.50;2329.60;;;;;;5093764;28;20028;-84
2021/07/28 01:29:44;;;;;;;29.60;13.95;;;640.50;2329.60;;;;;;5090664;28;20039;-81
2021/07/28 01:32:09;;;;;;;26.75;14.50;;;640.40;2329.60;;;;;;5093823;28;20036;-83
2021/07/28 01:34:36;;;;;;;27.70;13.07;;;640.20;2355.20;;;;;;5093243;28;20016;-83
2021/07/28 01:37:08;;;;;;;30.40;12.63;;;640.20;2355.20;;;;;;5094691;28;20020;-84
2021/07/28 01:42:56;;;;;;;21.00;12.65;;;640.10;2355.20;;;;;;5072673;22;20493;-81
2021/07/28 01:45:21;;;;;;;28.08;12.90;;;640.10;2355.20;;;;;;5043322;28;20060;-80
2021/07/28 01:47:47;;;;;;;21.02;12.60;;;640.10;2355.20;;;;;;5042557;28;20086;-84
2021/07/28 01:50:13;;;;;;;27.40;13.55;;;640.10;2355.20;;;;;;5043766;28;20070;-82
2021/07/28 01:52:41;;;;;;;21.05;12.98;;;640.10;2355.20;;;;;;5049287;28;20076;-80
2021/07/28 01:55:08;;;;;;;22.63;12.65;;;640.10;2355.20;;;;;;5044474;28;20092;-82
2021/07/28 01:57:34;;;;;;;19.98;12.75;;;640.10;2355.20;;;;;;5049476;28;20157;-81
2021/07/28 02:00:02;;;;;;;32.67;13.65;;;640.00;2355.20;;;;;;5045238;28;20044;-83
2021/07/28 02:02:31;;;;;;;20.23;12.18;;;640.10;2355.20;;;;;;5041819;28;20530;-81
2021/07/28 02:04:58;;;;;;;26.27;13.25;;;640.10;2355.20;;;;;;5041320;28;20402;-84
2021/07/28 02:07:24;;;;;;;21.92;12.60;;;640.10;2355.20;;;;;;5044195;28;20020;-81
2021/07/28 02:09:50;;;;;;;18.27;12.52;;;640.20;2355.20;;;;;;5062142;28;20033;-82
2021/07/28 02:12:16;;;;;;;22.02;12.63;;;640.10;2355.20;;;;;;5040962;28;20029;-84
2021/07/28 02:14:42;;;;;;;24.17;13.13;;;640.20;2355.20;;;;;;5040664;28;20031;-80
2021/07/28 02:17:08;;;;;;;23.17;12.70;;;640.10;2355.20;;;;;;5045798;28;20021;-81
2021/07/28 02:19:34;;;;;;;21.60;13.00;;;640.10;2355.20;;;;;;5046564;28;20020;-83
2021/07/28 02:22:00;;;;;;;21.83;12.82;;;640.10;2355.20;;;;;;5043170;28;20072;-82
2021/07/28 02:24:25;;;;;;;21.17;13.52;;;640.00;2355.20;;;;;;5042010;28;20043;-82
2021/07/28 02:26:51;;;;;;;28.40;14.13;;;615.20;2380.80;;;;;;5044922;28;20032;-82
2021/07/28 02:29:17;;;;;;;28.65;12.93;;;614.90;2432.00;;;;;;5042129;28;20033;-82
2021/07/28 02:31:43;;;;;;;21.55;13.70;;;614.70;2432.00;;;;;;5043837;28;20053;-82
2021/07/28 02:34:08;;;;;;;20.98;13.88;;;614.60;2432.00;;;;;;5046504;28;20025;-83
2021/07/28 02:36:34;;;;;;;27.02;14.07;;;614.70;2432.00;;;;;;5046646;28;20040;-84
2021/07/28 02:39:00;;;;;;;23.10;13.80;;;614.60;2432.00;;;;;;5046378;28;21112;-81
2021/07/28 02:41:25;;;;;;;25.38;13.60;;;614.70;2432.00;;;;;;5037990;28;20135;-82
2021/07/28 02:43:51;;;;;;;28.27;14.27;;;614.70;2432.00;;;;;;5044098;28;20016;-81
2021/07/28 02:46:17;;;;;;;26.23;15.48;;;614.80;2432.00;;;;;;5061740;28;20485;-81
2021/07/28 02:48:42;;;;;;;25.23;13.95;;;614.80;2432.00;;;;;;5065333;28;20025;-82
2021/07/28 02:51:08;;;;;;;29.83;15.88;;;614.90;2432.00;;;;;;5047458;28;20032;-81
2021/07/28 02:53:34;;;;;;;25.35;15.43;;;614.80;2432.00;;;;;;5046728;28;20513;-80
2021/07/28 02:55:59;;;;;;;23.13;14.45;;;614.80;2432.00;;;;;;5041682;28;20017;-80
2021/07/28 02:58:25;;;;;;;21.73;14.70;;;614.80;2432.00;;;;;;5045734;28;20493;-83
2021/07/28 03:00:54;;;;;;;23.42;14.07;;;614.80;2432.00;;;;;;5044294;28;20052;-80
2021/07/28 03:03:19;;;;;;;26.75;14.38;;;614.80;2432.00;;;;;;5062196;28;20020;-82
2021/07/28 03:05:45;;;;;;;24.23;14.32;;;614.80;2432.00;;;;;;5044328;28;20039;-80
2021/07/28 03:08:11;;;;;;;23.42;14.43;;;614.80;2432.00;;;;;;5049982;28;20033;-79
2021/07/28 03:10:36;;;;;;;31.70;14.30;;;614.80;2432.00;;;;;;5047147;28;20505;-80
2021/07/28 03:13:02;;;;;;;26.98;14.88;;;614.90;2432.00;;;;;;5044287;28;20029;-79
2021/07/28 03:15:28;;;;;;;23.02;13.88;;;615.00;2432.00;;;;;;5046148;28;20050;-82
2021/07/28 03:17:53;;;;;;;24.33;12.75;;;615.10;2432.00;;;;;;5063107;28;20048;-83
2021/07/28 03:20:19;;;;;;;27.05;14.35;;;615.10;2432.00;;;;;;5046297;28;20455;-80
2021/07/28 03:22:45;;;;;;;22.95;13.73;;;615.10;2432.00;;;;;;5046281;28;20042;-80
2021/07/28 03:25:11;;;;;;;27.25;14.57;;;615.10;2432.00;;;;;;5044530;28;20021;-83
2021/07/28 03:27:37;;;;;;;31.95;15.20;;;615.20;2432.00;;;;;;5044137;28;20028;-83
2021/07/28 03:30:03;;;;;;;18.83;13.68;;;615.20;2432.00;;;;;;5061929;28;20021;-84
2021/07/28 03:32:29;;;;;;;23.95;13.90;;;615.30;2432.00;;;;;;5059683;28;20478;-84
2021/07/28 03:34:54;;;;;;;25.60;13.60;;;640.00;2432.00;;;;;;5053164;28;20031;-84
2021/07/28 03:37:20;;;;;;;25.33;14.05;;;640.00;2432.00;;;;;;5050394;28;20017;-85
2021/07/28 03:39:46;;;;;;;24.00;13.27;;;640.10;2432.00;;;;;;5051133;28;20020;-82
2021/07/28 03:42:11;;;;;;;25.15;13.38;;;640.10;2432.00;;;;;;5056693;28;20494;-82
2021/07/28 03:44:37;;;;;;;22.98;13.27;;;640.10;2432.00;;;;;;5056098;28;20020;-83
2021/07/28 03:47:03;;;;;;;25.23;12.82;;;640.10;2406.40;;;;;;5047654;28;20436;-83
2021/07/28 03:49:29;;;;;;;19.23;13.15;;;640.20;2406.40;;;;;;5039196;28;20041;-84
2021/07/28 03:51:54;;;;;;;17.52;13.05;;;640.20;2406.40;;;;;;5039347;28;20026;-83
2021/07/28 03:54:20;;;;;;;20.95;12.85;;;640.40;2406.40;;;;;;5025021;28;20086;-83
2021/07/28 03:56:46;;;;;;;25.48;13.77;;;640.40;2406.40;;;;;;5033939;28;20018;-84
2021/07/28 03:59:11;;;;;;;26.02;13.45;;;640.50;2380.80;;;;;;5043433;28;20029;-83
2021/07/28 04:01:37;;;;;;;27.13;13.23;;;640.50;2355.20;;;;;;5039007;28;20025;-84
2021/07/28 04:04:03;;;;;;;26.70;13.50;;;640.50;2355.20;;;;;;5054342;28;20067;-84
2021/07/28 04:06:29;;;;;;;18.02;12.05;;;640.50;2355.20;;;;;;5036240;28;20037;-83
2021/07/28 04:08:54;;;;;;;26.23;12.75;;;640.50;2355.20;;;;;;5019020;28;20372;-83
2021/07/28 04:11:20;;;;;;;20.25;11.77;;;640.60;2355.20;;;;;;5018827;28;20041;-83
2021/07/28 04:13:46;;;;;;;34.83;12.85;;;640.60;2355.20;;;;;;5018538;28;20033;-82
2021/07/28 04:16:11;;;;;;;21.55;11.85;;;640.70;2355.20;;;;;;5018649;28;20056;-83
2021/07/28 04:18:37;;;;;;;25.63;13.80;;;640.70;2329.60;;;;;;5018954;28;20026;-84
2021/07/28 04:21:03;;;;;;;28.13;13.43;;;640.80;2329.60;;;;;;5018849;28;20056;-85
2021/07/28 04:23:29;;;;;;;27.50;12.27;;;640.90;2304.00;;;;;;5018795;28;20036;-83
2021/07/28 04:25:54;;;;;;;21.02;12.25;;;665.60;2329.60;;;;;;5021590;28;20029;-84
2021/07/28 04:28:20;;;;;;;22.38;12.93;;;665.60;2329.60;;;;;;5038133;28;20041;-83
2021/07/28 04:30:46;;;;;;;24.52;13.75;;;665.80;2304.00;;;;;;5038676;28;20025;-85
2021/07/28 04:33:11;;;;;;;21.45;13.15;;;665.60;2329.60;;;;;;5043659;28;20040;-80
2021/07/28 04:35:37;;;;;;;18.98;12.30;;;665.90;2304.00;;;;;;5066371;28;20025;-79
2021/07/28 04:38:03;;;;;;;25.83;13.68;;;666.00;2304.00;;;;;;5045247;28;20490;-82
2021/07/28 04:40:28;;;;;;;24.88;13.02;;;666.20;2329.60;;;;;;5047422;28;20031;-84
2021/07/28 04:42:54;;;;;;;28.23;12.38;;;666.30;2304.00;;;;;;5046179;28;20486;-81
2021/07/28 04:45:20;;;;;;;24.15;14.02;;;666.30;2304.00;;;;;;5046185;28;20024;-81
2021/07/28 04:47:46;;;;;;;25.25;13.25;;;666.30;2252.80;;;;;;5064541;28;20025;-81
2021/07/28 04:50:18;;;;;;;22.10;14.07;;;666.20;2278.40;;;;;;5049803;28;20033;-85
2021/07/28 04:52:43;;;;;;;35.63;16.00;;;666.30;2304.00;;;;;;5046303;28;20024;-84
2021/07/28 04:55:10;;;;;;;30.02;13.80;;;666.20;2304.00;;;;;;5045880;28;20021;-79
2021/07/28 04:57:35;;;;;;;26.10;14.52;;;666.30;2278.40;;;;;;5036691;28;20025;-80
2021/07/28 05:00:02;;;;;;;22.02;13.85;;;666.00;2329.60;;;;;;5054139;28;20032;-86
2021/07/28 05:02:27;;;;;;;25.73;14.43;;;665.90;2329.60;;;;;;5036606;28;20025;-82
2021/07/28 05:04:53;;;;;;;30.05;15.90;;;665.90;2355.20;;;;;;5044777;28;20539;-81
2021/07/28 05:07:19;;;;;;;25.80;14.00;;;665.80;2355.20;;;;;;5052500;28;20112;-85
2021/07/28 05:09:44;;;;;;;26.58;15.60;;;665.70;2355.20;;;;;;5054184;28;20048;-79
2021/07/28 05:12:10;;;;;;;26.35;15.23;;;665.70;2355.20;;;;;;5054062;28;20048;-82
2021/07/28 05:14:36;;;;;;;22.92;15.05;;;665.70;2380.80;;;;;;5053852;28;20052;-83
2021/07/28 05:17:02;;;;;;;25.17;14.20;;;665.80;2355.20;;;;;;5053982;28;20505;-82
2021/07/28 05:19:27;;;;;;;26.00;15.25;;;665.80;2355.20;;;;;;5049356;28;20509;-81
2021/07/28 05:21:53;;;;;;;33.13;16.90;;;665.70;2380.80;;;;;;5017208;28;20479;-79
2021/07/28 05:24:19;;;;;;;29.95;14.73;;;665.90;2355.20;;;;;;5017210;28;20050;-80
2021/07/28 05:26:45;;;;;;;26.17;14.35;;;665.90;2355.20;;;;;;5033141;28;20112;-80
2021/07/28 05:29:10;;;;;;;26.52;14.45;;;666.00;2329.60;;;;;;5053027;28;20060;-84
2021/07/28 05:31:37;;;;;;;22.70;13.52;;;666.00;2329.60;;;;;;5054347;28;20032;-82
2021/07/28 05:34:02;;;;;;;27.02;14.23;;;666.20;2304.00;;;;;;5053519;28;20029;-86
2021/07/28 05:36:28;;;;;;;26.35;14.00;;;666.20;2278.40;;;;;;5053583;28;20131;-81
2021/07/28 05:38:54;;;;;;;21.77;14.45;;;666.20;2278.40;;;;;;5044803;28;20017;-81
2021/07/28 05:41:19;;;;;;;27.13;14.55;;;666.30;2278.40;;;;;;5050875;28;20052;-81
2021/07/28 05:43:45;;;;;;;25.52;14.05;;;666.30;2278.40;;;;;;5053472;28;20028;-81
2021/07/28 05:46:11;;;;;;;26.63;14.43;;;666.30;2304.00;;;;;;5053352;28;20037;-83
2021/07/28 05:48:37;;;;;;;22.45;14.70;;;666.30;2278.40;;;;;;5048708;28;20498;-82
2021/07/28 05:51:02;;;;;;;28.08;15.38;;;666.40;2304.00;;;;;;5036674;28;20033;-84
2021/07/28 05:53:28;;;;;;;22.95;13.45;;;666.40;2278.40;;;;;;5030158;28;20037;-82
2021/07/28 05:55:55;;;;;;;25.10;14.35;;;666.50;2278.40;;;;;;5017182;28;20568;-83
2021/07/28 05:58:21;;;;;;;24.50;14.48;;;691.20;2278.40;;;;;;5017010;28;20026;-83
2021/07/28 06:00:49;;;;;;;24.90;15.10;;;691.30;2278.40;;;;;;5025344;28;20471;-84
2021/07/28 06:03:15;;;;;;;20.02;13.35;;;691.40;2252.80;;;;;;5053250;28;20060;-82
2021/07/28 06:05:41;;;;;;;23.65;13.82;;;691.40;2252.80;;;;;;5053333;28;20025;-81
2021/07/28 06:08:07;;;;;;;26.50;16.02;;;691.50;2227.20;;;;;;5045911;28;20479;-81
2021/07/28 06:10:33;;;;;;;25.63;15.05;;;691.50;2252.80;;;;;;5053949;28;20059;-86
2021/07/28 06:13:02;;;;;;;24.77;14.65;;;691.70;2252.80;;;;;;5036126;28;20033;-82
2021/07/28 06:15:27;;;;;;;22.98;14.52;;;691.80;2252.80;;;;;;5036264;28;20036;-81
2021/07/28 06:17:53;;;;;;;29.27;15.88;;;691.90;2252.80;;;;;;5039620;28;20024;-81
2021/07/28 06:20:19;;;;;;;20.27;14.48;;;692.10;2252.80;;;;;;5052303;28;20115;-83
2021/07/28 06:22:45;;;;;;;23.80;16.00;;;716.80;2252.80;;;;;;5036853;28;20044;-80
2021/07/28 06:25:11;;;;;;;24.35;15.32;;;716.80;2227.20;;;;;;5053757;28;20475;-81
2021/07/28 06:27:38;;;;;;;20.98;15.10;;;716.80;2227.20;;;;;;5033206;28;20048;-81
2021/07/28 06:30:04;;;;;;;27.15;14.70;;;716.90;2227.20;;;;;;5024635;28;20041;-80
2021/07/28 06:32:29;;;;;;;25.20;15.77;;;717.00;2201.60;;;;;;5035831;28;20075;-80
2021/07/28 06:34:55;;;;;;;28.35;15.88;;;717.10;2201.60;;;;;;5035754;28;20037;-86
2021/07/28 06:37:21;;;;;;;27.25;15.15;;;717.20;2201.60;;;;;;5035864;28;20032;-82
2021/07/28 06:39:46;;;;;;;22.98;14.38;;;717.20;2227.20;;;;;;5036219;28;20428;-83
2021/07/28 06:42:14;;;;;;;25.58;14.35;;;717.40;2150.40;;;;;;5036178;28;20049;-84
2021/07/28 06:44:41;;;;;;;27.98;16.70;;;717.60;2176.00;;;;;;5046391;28;20021;-81
2021/07/28 06:47:07;;;;;;;20.58;14.25;;;717.70;2176.00;;;;;;5025208;28;20024;-83
2021/07/28 06:49:33;;;;;;;27.33;15.40;;;717.70;2124.80;;;;;;5035025;28;20037;-79
2021/07/28 06:51:58;;;;;;;18.00;15.07;;;742.40;2176.00;;;;;;5035563;28;20124;-80
2021/07/28 06:54:24;;;;;;;22.70;14.50;;;742.40;2150.40;;;;;;5035481;28;20029;-87
2021/07/28 06:56:50;;;;;;;34.78;16.00;;;742.50;2124.80;;;;;;5038899;28;20098;-80
2021/07/28 06:59:15;;;;;;;27.13;15.57;;;742.60;2124.80;;;;;;5040485;28;20075;-80
2021/07/28 07:01:41;;;;;;;28.38;16.27;;;742.60;2124.80;;;;;;5015972;28;20046;-83
2021/07/28 07:04:07;;;;;;;26.98;15.65;;;742.80;2176.00;;;;;;5035160;28;20383;-80
2021/07/28 07:06:33;;;;;;;31.10;16.52;;;742.90;2099.20;;;;;;5039905;28;20089;-81
2021/07/28 07:08:58;;;;;;;27.65;17.50;;;743.00;2150.40;;;;;;5045156;28;20107;-80
2021/07/28 07:11:24;;;;;;;36.63;15.95;;;743.00;2099.20;;;;;;5043590;28;20493;-82
2021/07/28 07:13:50;;;;;;;25.60;16.33;;;743.10;2073.60;;;;;;5038760;28;20075;-82
2021/07/28 07:16:16;;;;;;;25.42;15.55;;;743.20;2048.00;;;;;;5057213;28;20055;-80
2021/07/28 07:18:42;;;;;;;24.92;15.20;;;743.30;2022.40;;;;;;5039308;28;20025;-80
2021/07/28 07:21:07;;;;;;;29.58;16.88;;;768.10;2022.40;;;;;;5039344;28;20032;-82
2021/07/28 07:23:33;;;;;;;37.00;17.02;;;768.10;2048.00;;;;;;5047340;28;20025;-82
2021/07/28 07:25:59;;;;;;;35.70;16.58;;;768.20;2022.40;;;;;;5055859;28;20505;-80
2021/07/28 07:28:25;;;;;;;28.95;15.90;;;768.40;1971.20;;;;;;5055665;28;20064;-81
2021/07/28 07:30:51;;;;;;;22.80;15.73;;;768.10;1996.80;;;;;;5042862;28;20470;-80
2021/07/28 07:36:01;;;;;;;26.05;15.82;;;768.60;2022.40;;;;;;5056397;28;20059;-84
2021/07/28 07:38:27;;;;;;;26.73;15.50;;;768.60;2022.40;;;;;;5038627;28;20044;-78
2021/07/28 07:40:53;;;;;;;33.38;17.70;;;768.80;2022.40;;;;;;5056165;28;20051;-78
2021/07/28 07:43:18;;;;;;;26.83;14.95;;;768.90;2022.40;;;;;;5038597;28;20029;-80
2021/07/28 07:45:44;;;;;;;22.67;15.07;;;793.60;2048.00;;;;;;5056508;28;20048;-79
2021/07/28 07:48:10;;;;;;;30.75;16.45;;;793.70;1945.60;;;;;;5038416;28;20032;-80
2021/07/28 07:50:35;;;;;;;26.88;16.20;;;793.70;1996.80;;;;;;5045127;28;20163;-78
2021/07/28 07:53:04;;;;;;;22.60;15.50;;;793.70;1971.20;;;;;;5054798;28;20025;-78
2021/07/28 07:55:31;;;;;;;24.48;15.85;;;793.70;1996.80;;;;;;5038180;28;20104;-79
2021/07/28 07:57:57;;;;;;;24.23;16.45;;;793.70;1996.80;;;;;;5038044;28;20021;-79
2021/07/28 08:00:23;;;;;;;30.17;16.58;;;793.70;2022.40;;;;;;5035308;28;20075;-79
2021/07/28 08:02:49;;;;;;;32.33;16.02;;;793.80;1996.80;;;;;;5018379;28;20033;-83
2021/07/28 08:05:15;;;;;;;27.67;15.15;;;794.00;1945.60;;;;;;5032742;28;20025;-79
2021/07/28 08:07:40;;;;;;;28.73;16.48;;;794.00;1971.20;;;;;;5041083;28;20459;-79
2021/07/28 08:10:07;;;;;;;32.30;17.23;;;794.00;1996.80;;;;;;5054828;28;20068;-79
2021/07/28 08:12:34;;;;;;;30.92;15.82;;;794.20;1971.20;;;;;;5054318;28;20033;-81
2021/07/28 08:15:00;;;;;;;25.45;16.60;;;794.20;1945.60;;;;;;5056313;28;20103;-82
2021/07/28 08:17:26;;;;;;;29.77;15.95;;;794.20;1945.60;;;;;;5051057;28;20017;-78
2021/07/28 08:19:52;;;;;;;26.40;15.77;;;794.30;1920.00;;;;;;5035626;28;20075;-77
2021/07/28 08:22:17;;;;;;;32.08;16.23;;;794.30;1971.20;;;;;;5035786;28;20105;-78
2021/07/28 08:24:43;;;;;;;23.80;15.40;;;794.50;1920.00;;;;;;5025075;28;20024;-85
2021/07/28 08:27:09;;;;;;;23.17;15.40;;;819.20;1894.40;;;;;;5023022;28;20131;-79
2021/07/28 08:29:34;;;;;;;24.92;15.70;;;819.30;1817.60;;;;;;5034940;28;20444;-78
2021/07/28 08:32:00;;;;;;;23.38;16.42;;;819.30;1843.20;;;;;;5025223;28;20030;-84
2021/07/28 08:34:29;;;;;;;26.05;15.43;;;819.40;1868.80;;;;;;5047677;28;20029;-75
2021/07/28 08:36:55;;;;;;;29.50;15.07;;;819.50;1894.40;;;;;;5040780;28;20122;-76
2021/07/28 08:39:21;;;;;;;33.78;16.83;;;819.50;1868.80;;;;;;5026538;28;20406;-76
2021/07/28 08:41:50;;;;;;;26.45;15.48;;;819.50;1868.80;;;;;;5027678;28;20045;-75
2021/07/28 08:44:20;;;;;;;18.77;14.48;;;819.60;1868.80;;;;;;5028627;28;20483;-76
2021/07/28 08:46:49;;;;;;;28.35;16.27;;;819.60;1843.20;;;;;;5044028;28;20025;-77
2021/07/28 08:49:17;;;;;;;20.10;14.30;;;819.70;1843.20;;;;;;5027709;28;20040;-77
2021/07/28 08:51:43;;;;;;;28.27;16.90;;;819.80;1843.20;;;;;;5043840;28;20082;-76
2021/07/28 08:54:10;;;;;;;26.08;15.25;;;819.90;1894.40;;;;;;5025864;28;20494;-76
2021/07/28 08:56:40;;;;;;;28.88;15.65;;;820.00;1843.20;;;;;;5044163;28;20032;-78
2021/07/28 08:59:25;;;;;;;25.40;15.35;;;820.10;1843.20;;;;;;5038526;28;20498;-77
2021/07/28 09:01:51;;;;;;;26.23;15.07;;;820.10;1868.80;;;;;;5028174;28;20485;-76
2021/07/28 09:04:17;;;;;;;29.70;15.13;;;820.10;1868.80;;;;;;5040635;28;20036;-76
2021/07/28 09:06:43;;;;;;;28.40;15.10;;;820.10;1792.00;;;;;;5042729;28;20017;-77
2021/07/28 09:09:10;;;;;;;27.83;14.40;;;820.10;1817.60;;;;;;5044389;28;20036;-77
2021/07/28 09:11:50;;;;;;;24.67;14.45;;;844.90;1868.80;;;;;;5043666;28;20025;-77
2021/07/28 09:14:19;;;;;;;25.85;14.57;;;844.90;1868.80;;;;;;5044350;28;20111;-78
2021/07/28 09:16:44;;;;;;;28.95;14.30;;;845.00;1894.40;;;;;;5055047;28;20090;-78
2021/07/28 09:19:10;;;;;;;28.20;15.00;;;845.10;1894.40;;;;;;5060624;28;20036;-81
2021/07/28 09:21:36;;;;;;;29.58;14.65;;;845.20;1894.40;;;;;;5042572;28;20032;-83
2021/07/28 09:24:12;;;;;;;29.08;14.80;;;845.30;1843.20;;;;;;5026457;28;20032;-78
2021/07/28 09:26:48;;;;;;;25.05;14.52;;;845.20;1817.60;;;;;;5046847;28;20540;-85
2021/07/28 09:29:16;;;;;;;24.00;13.63;;;845.20;1843.20;;;;;;5023989;28;20044;-79
2021/07/28 09:31:51;;;;;;;28.85;13.68;;;845.20;1817.60;;;;;;5042168;28;20024;-78
2021/07/28 09:34:24;;;;;;;24.23;13.32;;;845.20;1792.00;;;;;;5043945;28;20025;-81
2021/07/28 09:36:53;;;;;;;29.27;13.55;;;845.30;1766.40;;;;;;5030168;28;20091;-85
2021/07/28 09:39:23;;;;;;;28.70;14.93;;;845.60;1740.80;;;;;;5045526;28;20029;-78
2021/07/28 09:41:49;;;;;;;24.90;14.70;;;845.60;1792.00;;;;;;5049526;28;20048;-83
2021/07/28 09:44:31;;;;;;;30.90;16.10;;;845.70;1817.60;;;;;;5057181;28;20025;-81
2021/07/28 09:47:13;;;;;;;26.77;16.00;;;870.40;1792.00;;;;;;5044477;28;20024;-74
2021/07/28 09:49:44;;;;;;;25.20;14.82;;;870.60;1792.00;;;;;;5046727;28;20437;-77
2021/07/28 09:52:20;;;;;;;30.88;15.90;;;870.80;1766.40;;;;;;5032163;28;20545;-77
2021/07/28 09:54:47;;;;;;;36.08;15.45;;;870.90;1766.40;;;;;;5041566;28;20021;-76
2021/07/28 09:57:20;;;;;;;27.00;14.43;;;871.20;1740.80;;;;;;5042713;28;20029;-76
2021/07/28 09:59:50;;;;;;;26.05;13.60;;;871.30;1715.20;;;;;;5025021;28;20105;-78
2021/07/28 10:02:17;;;;;;;26.00;15.13;;;896.10;1664.00;;;;;;5041384;28;20039;-78
2021/07/28 10:04:48;;;;;;;32.38;14.38;;;896.10;1689.60;;;;;;5044451;28;20018;-82
2021/07/28 10:07:19;;;;;;;25.63;13.35;;;896.00;1664.00;;;;;;5024785;28;20029;-76
2021/07/28 10:09:57;;;;;;;33.03;13.55;;;871.30;1612.80;;;;;;5033577;28;20041;-77
2021/07/28 10:12:24;;;;;;;25.33;12.70;;;871.30;1587.20;;;;;;5033374;28;20083;-79
2021/07/28 10:14:51;;;;;;;21.17;12.90;;;871.10;1612.80;;;;;;5015535;28;20125;-78
2021/07/28 10:17:18;;;;;;;21.25;13.82;;;871.10;1612.80;;;;;;5015215;28;20057;-77
2021/07/28 10:19:44;;;;;;;27.48;14.27;;;871.20;1612.80;;;;;;5043246;28;20075;-77
2021/07/28 10:22:11;;;;;;;28.33;14.68;;;871.30;1638.40;;;;;;5033325;28;20018;-77
2021/07/28 10:24:37;;;;;;;29.13;13.50;;;896.20;1587.20;;;;;;5015687;28;20025;-76
2021/07/28 10:27:05;;;;;;;20.67;12.93;;;896.30;1612.80;;;;;;5015395;28;20028;-77
2021/07/28 10:29:31;;;;;;;25.33;13.48;;;896.40;1536.00;;;;;;5015540;28;20030;-78
2021/07/28 10:31:57;;;;;;;25.00;13.55;;;896.50;1536.00;;;;;;5020477;28;20025;-82
2021/07/28 10:34:36;;;;;;;19.67;12.27;;;896.80;1536.00;;;;;;5040529;28;20032;-83
2021/07/28 10:37:04;;;;;;;20.75;12.07;;;896.80;1510.40;;;;;;5037175;28;20040;-81
2021/07/28 10:39:40;;;;;;;18.75;12.00;;;896.50;1433.60;;;;;;5041557;28;20029;-81
2021/07/28 10:42:13;;;;;;;26.50;13.40;;;896.90;1459.20;;;;;;5042173;28;20041;-82
2021/07/28 10:45:02;;;;;;;24.77;13.25;;;896.90;1459.20;;;;;;5035271;28;20029;-79
2021/07/28 10:47:53;;;;;;;25.98;13.02;;;896.90;1484.80;;;;;;5015111;28;20033;-78
2021/07/28 10:50:22;;;;;;;27.08;13.88;;;921.70;1510.40;;;;;;5026986;28;20106;-78
2021/07/28 10:52:50;;;;;;;30.67;13.88;;;922.00;1536.00;;;;;;5039560;28;20021;-79
2021/07/28 10:55:18;;;;;;;34.72;13.95;;;922.00;1484.80;;;;;;5055012;28;20033;-79
2021/07/28 10:57:53;;;;;;;26.38;13.30;;;922.00;1510.40;;;;;;5073284;28;20040;-78
2021/07/28 11:00:36;;;;;;;32.42;14.52;;;922.10;1510.40;;;;;;5051444;28;20048;-84
2021/07/28 11:03:02;;;;;;;26.52;14.07;;;922.50;1484.80;;;;;;5035708;28;20427;-84
2021/07/28 11:05:35;;;;;;;25.13;14.15;;;922.20;1484.80;;;;;;5034595;28;20090;-80
2021/07/28 11:08:29;;;;;;;29.92;13.90;;;922.40;1484.80;;;;;;5023459;28;20021;-85
2021/07/28 11:10:58;;;;;;;24.13;14.90;;;922.50;1484.80;;;;;;5023779;28;20121;-83
2021/07/28 11:13:30;;;;;;;29.15;14.88;;;947.30;1510.40;;;;;;5048407;28;20033;-81
2021/07/28 11:15:58;;;;;;;28.75;15.32;;;947.40;1510.40;;;;;;5062978;28;20033;-83
2021/07/28 11:18:41;;;;;;;26.83;14.95;;;947.30;1484.80;;;;;;5032669;28;20034;-80
2021/07/28 11:21:22;;;;;;;29.73;14.65;;;947.40;1459.20;;;;;;5048501;28;20482;-78
2021/07/28 11:24:00;;;;;;;25.83;14.27;;;947.40;1484.80;;;;;;5020706;28;20486;-79
2021/07/28 11:26:36;;;;;;;33.28;14.00;;;947.40;1459.20;;;;;;5015098;28;20490;-80
2021/07/28 11:29:20;;;;;;;32.15;14.02;;;947.30;1459.20;;;;;;5014956;28;20112;-86
2021/07/28 11:31:49;;;;;;;26.92;14.60;;;947.60;1433.60;;;;;;5036372;28;20108;-85
2021/07/28 11:34:15;;;;;;;25.60;13.55;;;947.60;1433.60;;;;;;5051020;28;20460;-84
2021/07/28 11:36:43;;;;;;;18.38;12.45;;;947.50;1408.00;;;;;;5051761;28;20079;-80
2021/07/28 11:39:17;;;;;;;26.38;13.02;;;947.50;1382.40;;;;;;5057951;28;20025;-81
2021/07/28 11:41:45;;;;;;;22.23;12.73;;;922.50;1408.00;;;;;;5040442;28;20060;-81
2021/07/28 11:44:12;;;;;;;26.95;12.27;;;922.40;1433.60;;;;;;5052398;28;20091;-83
2021/07/28 11:46:48;;;;;;;26.58;12.00;;;922.30;1433.60;;;;;;5034952;28;20025;-84
2021/07/28 11:49:14;;;;;;;30.85;12.43;;;922.30;1408.00;;;;;;5036859;28;20033;-81
2021/07/28 11:51:42;;;;;;;25.80;13.23;;;922.40;1408.00;;;;;;5070444;28;20027;-79
2021/07/28 11:54:08;;;;;;;21.80;11.77;;;922.40;1459.20;;;;;;5057989;28;20143;-81
2021/07/28 11:56:34;;;;;;;22.88;11.10;;;922.40;1382.40;;;;;;5063888;28;20546;-80
2021/07/28 11:59:00;;;;;;;21.70;11.57;;;947.20;1382.40;;;;;;5035912;28;20391;-81
2021/07/28 12:01:33;;;;;;;27.70;11.63;;;947.40;1356.80;;;;;;5034715;28;20021;-79
2021/07/28 12:04:07;;;;;;;26.90;12.23;;;973.20;1280.00;;;;;;5023568;28;20037;-79
2021/07/28 12:06:42;;;;;;;21.37;11.60;;;998.50;1254.40;;;;;;5046292;28;20049;-79